Terminal Aerodrome Forecast
Issued by NWS Cheyenne, WY

Home | Current Version | Previous Version | Text Only | Print | Product List | Glossary On
Versions: 1 2 3 4 5 6 7 8 9 10 11 12 13 14
000
FTUS45 KCYS 190541 CCA
TAFCYS
TAF COR
KCYS 190541Z 1906/2006 23008KT P6SM BKN200
     FM190900 27007KT P6SM SCT200
     FM191700 20012KT P6SM FEW200=

USA.gov is the U.S. government's official web portal to all federal, state and local government web resources and services.